Portada
METAR-TAF:

METAR-TAF

Aeroports :

Aeroport de Gran Canària

Gran Canària, Espanya

latitud: 27-56N, longitud: 015-23W, altitud: 23 m

Observació

L'informe es va fer fa 15 minuts, a les 20:00 UTC
Vent 19 kt del Nord
Temperatura 29°C
Humitat 37%
Pressió 1012 hPa
Visibilitat 10 km o més
sense núvols per sota de 1500 mi sense presència de cumulonimbus.

METAR: GCLP 242000Z 01019KT CAVOK 29/13 Q1012 NOSIG

Hora: 21:15 (20:15 UTC)

Pronòstic

L'informe es va fer fa 6 hores i 15 minuts, a les 14:00 UTC
Pronòstic vàlid del 24 a les 15 UTC al 25 a les 15 UTC
Vent 26 kt del Nord/Nord-Est
Visibilitat 10 km o més
Escasses núvols a una alçada de 2000 ft
Probabilitat 30% :
Temporalment
l' 24 a les 15 UTC al 24 a les 24 UTC
Vent 26 kt del Nord/Nord-Est amb ràfegues de 36 kt

TAF: GCLP 241400Z 2415/2515 02026KT 9999 FEW020 TX30/2514Z TN25/2505Z PROB30 TEMPO 2415/2424 02026G36KT

Observacions i pronòstics meteorològics de més de 4000 aeroports (METAR i TAF).

Les estacions disponibles són els punts grocs i vermells al mapa.

Posi el ratolí al punt desitjat per veure el nom de l'estació.

Feu clic per veure les observacions i els pronòstics meteorològics.

Per canviar el mapa: feu clic els botons verds amb una creu de color negre per apropar; al botó verd amb un guió per allunyar la imatge; o en les fletxes verdes per a mapes adjacents.


METAR-TAF: